createdAt,value
2022-07-31T00:00:19.850Z,49.18
2022-07-31T00:02:46.560Z,49.27
2022-07-31T00:05:13.443Z,49.29
2022-07-31T00:07:40.533Z,49.27
2022-07-31T00:10:07.521Z,49.55
2022-07-31T00:12:34.710Z,49.44
2022-07-31T00:15:07.502Z,50.60
2022-07-31T00:17:34.269Z,49.24
2022-07-31T00:20:01.124Z,49.64
2022-07-31T00:22:27.913Z,49.78
2022-07-31T00:24:54.448Z,49.63
2022-07-31T00:27:21.093Z,49.78
2022-07-31T00:29:47.750Z,49.70
2022-07-31T00:32:14.559Z,50.23
2022-07-31T00:34:41.745Z,50.07
2022-07-31T00:37:09.087Z,50.26
2022-07-31T00:39:35.816Z,50.42
2022-07-31T00:42:03.022Z,50.90
2022-07-31T00:44:29.664Z,50.60
2022-07-31T00:46:58.735Z,50.92
2022-07-31T00:49:27.526Z,51.52
2022-07-31T00:52:05.308Z,51.35
2022-07-31T00:54:32.636Z,51.23
2022-07-31T00:56:59.279Z,51.33
2022-07-31T00:59:27.742Z,51.30
2022-07-31T01:01:56.446Z,51.24
2022-07-31T01:04:23.445Z,51.08
2022-07-31T01:06:50.710Z,51.19
2022-07-31T01:09:17.339Z,51.31
2022-07-31T01:11:58.827Z,52.78
2022-07-31T01:14:29.591Z,52.06
2022-07-31T01:16:59.805Z,51.95
2022-07-31T01:19:38.509Z,52.76
2022-07-31T01:22:39.572Z,52.69
2022-07-31T01:25:16.858Z,53.34
2022-07-31T01:27:49.790Z,52.30
2022-07-31T01:30:17.918Z,52.41
2022-07-31T01:32:48.756Z,53.99
2022-07-31T01:35:32.688Z,54.13
2022-07-31T01:38:10.598Z,54.15
2022-07-31T01:40:45.997Z,54.02
2022-07-31T01:43:22.399Z,53.90
2022-07-31T01:45:55.706Z,53.88
2022-07-31T01:48:23.790Z,52.73
2022-07-31T01:50:52.651Z,52.59
2022-07-31T01:53:21.721Z,52.68
2022-07-31T01:56:02.798Z,52.86
2022-07-31T01:58:36.678Z,53.09
2022-07-31T02:01:11.446Z,52.52
2022-07-31T02:03:56.307Z,53.39
2022-07-31T02:06:26.777Z,52.31
2022-07-31T02:08:55.547Z,52.33
2022-07-31T02:11:23.812Z,52.17
2022-07-31T02:13:52.261Z,52.55
2022-07-31T02:16:19.481Z,52.94
2022-07-31T02:18:50.602Z,52.66
2022-07-31T02:21:25.274Z,52.97
2022-07-31T02:23:52.012Z,52.82
2022-07-31T02:26:19.972Z,52.68
2022-07-31T02:28:48.146Z,52.87
2022-07-31T02:31:16.943Z,52.58
2022-07-31T02:33:48.140Z,52.68
2022-07-31T02:36:17.215Z,52.63
2022-07-31T02:38:44.675Z,52.47
2022-07-31T02:41:14.344Z,52.79
2022-07-31T02:43:42.338Z,52.56
2022-07-31T02:46:18.991Z,52.63
2022-07-31T02:48:46.470Z,52.78
2022-07-31T02:51:15.055Z,52.42
2022-07-31T02:53:42.222Z,52.33
2022-07-31T02:56:10.229Z,52.63
2022-07-31T02:58:40.519Z,52.64
2022-07-31T03:01:07.697Z,52.76
2022-07-31T03:03:36.352Z,52.75
2022-07-31T03:06:03.553Z,52.72
2022-07-31T03:08:31.100Z,52.76
2022-07-31T03:11:02.592Z,52.81
2022-07-31T03:13:31.921Z,52.80
2022-07-31T03:15:59.658Z,52.82
2022-07-31T03:18:27.006Z,52.62
2022-07-31T03:20:55.139Z,52.84
2022-07-31T03:23:24.254Z,52.50
2022-07-31T03:25:57.024Z,52.77
2022-07-31T03:28:23.563Z,52.45
2022-07-31T03:30:55.275Z,53.42
2022-07-31T03:33:24.879Z,52.82
2022-07-31T03:35:51.828Z,52.77
2022-07-31T03:38:39.736Z,52.87
2022-07-31T03:41:06.137Z,52.66
2022-07-31T03:43:47.112Z,52.79
2022-07-31T03:46:19.767Z,53.00
2022-07-31T03:48:47.923Z,52.68
2022-07-31T03:51:15.860Z,52.61
2022-07-31T03:53:43.325Z,52.86
2022-07-31T03:56:19.013Z,52.73
2022-07-31T03:58:49.745Z,52.68
2022-07-31T04:01:20.749Z,52.26
2022-07-31T04:03:49.282Z,52.64
2022-07-31T04:06:28.434Z,52.48
2022-07-31T04:08:55.956Z,52.55
2022-07-31T04:11:23.452Z,52.62
2022-07-31T04:13:50.053Z,52.67
2022-07-31T04:16:16.705Z,52.71
2022-07-31T04:18:43.621Z,52.78
2022-07-31T04:21:17.863Z,52.81
2022-07-31T04:23:48.913Z,53.07
2022-07-31T04:26:42.928Z,52.96
2022-07-31T04:29:09.600Z,52.78
2022-07-31T04:31:36.362Z,52.67
2022-07-31T04:34:04.916Z,52.62
2022-07-31T04:36:32.091Z,52.71
2022-07-31T04:39:00.181Z,52.92
2022-07-31T04:41:27.376Z,52.50
2022-07-31T04:43:54.200Z,52.41
2022-07-31T04:46:21.094Z,52.33
2022-07-31T04:48:49.195Z,52.65
2022-07-31T04:51:22.478Z,53.04
2022-07-31T04:53:50.526Z,52.68
2022-07-31T04:56:19.742Z,52.76
2022-07-31T04:58:46.384Z,52.73
2022-07-31T05:01:13.010Z,52.52
2022-07-31T05:03:43.044Z,52.67
2022-07-31T05:06:11.090Z,52.06
2022-07-31T05:08:39.455Z,52.32
2022-07-31T05:11:07.124Z,52.38
2022-07-31T05:13:33.937Z,52.32
2022-07-31T05:16:00.565Z,52.43
2022-07-31T05:18:27.515Z,52.58
2022-07-31T05:21:14.285Z,52.44
2022-07-31T05:24:02.343Z,52.69
2022-07-31T05:26:45.566Z,52.50
2022-07-31T05:29:12.283Z,52.40
2022-07-31T05:31:38.872Z,52.30
2022-07-31T05:34:26.520Z,52.55
2022-07-31T05:36:53.948Z,52.29
2022-07-31T05:39:22.781Z,52.63
2022-07-31T05:42:07.901Z,53.01
2022-07-31T05:44:52.923Z,52.90
2022-07-31T05:47:19.638Z,52.41
2022-07-31T05:49:46.258Z,52.57
2022-07-31T05:52:12.799Z,52.13
2022-07-31T05:54:39.642Z,52.35
2022-07-31T05:57:33.534Z,52.13
2022-07-31T06:00:03.794Z,51.84
2022-07-31T06:02:38.537Z,51.30
2022-07-31T06:05:25.106Z,51.63
2022-07-31T06:07:52.130Z,51.47
2022-07-31T06:10:21.177Z,51.23
2022-07-31T06:12:48.806Z,50.85
2022-07-31T06:15:18.924Z,50.89
2022-07-31T06:17:45.784Z,50.85
2022-07-31T06:20:23.811Z,50.98
2022-07-31T06:22:50.476Z,50.95
2022-07-31T06:25:18.484Z,50.92
2022-07-31T06:27:52.011Z,50.85
2022-07-31T06:30:23.656Z,51.00
2022-07-31T06:32:50.281Z,50.96
2022-07-31T06:35:17.008Z,51.09
2022-07-31T06:38:03.876Z,51.02
2022-07-31T06:40:40.023Z,50.78
2022-07-31T06:43:33.668Z,50.18
2022-07-31T06:46:18.851Z,49.67
2022-07-31T06:49:11.708Z,49.91
2022-07-31T06:51:39.198Z,50.02
2022-07-31T06:54:07.979Z,49.33
2022-07-31T06:56:36.302Z,49.65
2022-07-31T06:59:04.277Z,49.19
2022-07-31T07:01:31.376Z,49.23
2022-07-31T07:03:58.252Z,49.07
2022-07-31T07:06:25.112Z,48.99
2022-07-31T07:08:52.569Z,48.73
2022-07-31T07:11:21.604Z,48.44
2022-07-31T07:13:51.228Z,48.58
2022-07-31T07:16:19.036Z,48.69
2022-07-31T07:18:45.896Z,47.96
2022-07-31T07:21:12.859Z,47.05
2022-07-31T07:23:40.000Z,46.92
2022-07-31T07:26:22.556Z,47.37
2022-07-31T07:28:49.296Z,46.86
2022-07-31T07:31:15.969Z,46.58
2022-07-31T07:33:43.161Z,46.40
2022-07-31T07:36:21.766Z,46.20
2022-07-31T07:38:55.036Z,45.82
2022-07-31T07:41:26.348Z,46.33
2022-07-31T07:43:53.785Z,46.22
2022-07-31T07:46:23.859Z,46.30
2022-07-31T07:48:54.102Z,46.17
2022-07-31T07:51:37.895Z,46.25
2022-07-31T07:54:40.153Z,46.21
2022-07-31T07:57:22.148Z,46.26
2022-07-31T07:59:54.765Z,46.30
2022-07-31T08:03:02.665Z,45.90
2022-07-31T08:05:39.916Z,46.22
2022-07-31T08:08:06.622Z,45.61
2022-07-31T08:10:53.456Z,45.62
2022-07-31T08:13:25.482Z,45.13
2022-07-31T08:16:10.477Z,45.17
2022-07-31T08:18:45.706Z,44.74
2022-07-31T08:21:12.371Z,44.87
2022-07-31T08:23:38.911Z,45.03
2022-07-31T08:26:06.765Z,44.72
2022-07-31T08:28:34.629Z,44.78
2022-07-31T08:31:03.484Z,44.92
2022-07-31T08:33:31.998Z,44.23
2022-07-31T08:35:59.353Z,44.12
2022-07-31T08:38:26.052Z,43.74
2022-07-31T08:41:13.521Z,43.26
2022-07-31T08:44:02.895Z,42.94
2022-07-31T08:46:29.252Z,42.64
2022-07-31T08:48:58.021Z,43.00
2022-07-31T08:51:25.790Z,42.61
2022-07-31T08:54:11.449Z,42.53
2022-07-31T08:56:38.957Z,42.93
2022-07-31T08:59:06.630Z,42.82
2022-07-31T09:01:34.982Z,42.39
2022-07-31T09:04:01.968Z,42.91
2022-07-31T09:06:28.852Z,42.77
2022-07-31T09:08:56.828Z,41.94
2022-07-31T09:11:23.356Z,41.95
2022-07-31T09:14:01.683Z,41.87
2022-07-31T09:16:51.344Z,42.17
2022-07-31T09:19:51.981Z,41.50
2022-07-31T09:22:27.169Z,41.42
2022-07-31T09:25:14.107Z,40.03
2022-07-31T09:27:40.716Z,40.62
2022-07-31T09:30:08.692Z,39.90
2022-07-31T09:33:16.614Z,37.56
2022-07-31T09:36:13.078Z,39.24
2022-07-31T09:38:44.019Z,39.65
2022-07-31T09:42:02.059Z,38.63
2022-07-31T09:44:35.736Z,36.92
2022-07-31T09:47:02.634Z,37.61
2022-07-31T09:49:34.223Z,36.24
2022-07-31T09:52:01.541Z,35.97
2022-07-31T09:54:30.772Z,35.88
2022-07-31T09:57:10.964Z,35.86
2022-07-31T09:59:40.292Z,35.92
2022-07-31T10:02:08.921Z,35.55
2022-07-31T10:04:38.015Z,34.70
2022-07-31T10:07:07.959Z,35.38
2022-07-31T10:09:37.221Z,36.04
2022-07-31T10:12:31.373Z,35.93
2022-07-31T10:15:04.964Z,35.60
2022-07-31T10:17:36.701Z,34.24
2022-07-31T10:20:19.973Z,34.16
2022-07-31T10:23:15.302Z,33.04
2022-07-31T10:25:53.806Z,32.95
2022-07-31T10:28:22.292Z,33.63
2022-07-31T10:30:49.729Z,34.14
2022-07-31T10:33:42.038Z,34.47
2022-07-31T10:36:27.283Z,34.05
2022-07-31T10:39:22.599Z,32.71
2022-07-31T10:42:27.648Z,33.21
2022-07-31T10:45:03.949Z,32.05
2022-07-31T10:47:40.144Z,31.50
2022-07-31T10:50:34.043Z,32.32
2022-07-31T10:53:12.283Z,32.18
2022-07-31T10:56:05.768Z,32.08
2022-07-31T10:59:12.171Z,32.25
2022-07-31T11:02:05.987Z,31.20
2022-07-31T11:04:41.340Z,32.25
2022-07-31T11:07:26.532Z,32.24
2022-07-31T11:10:21.638Z,31.09
2022-07-31T11:13:10.119Z,31.50
2022-07-31T11:15:47.507Z,31.41
2022-07-31T11:18:39.994Z,29.90
2022-07-31T11:21:35.944Z,30.08
2022-07-31T11:24:03.001Z,29.90
2022-07-31T11:26:40.953Z,28.52
2022-07-31T11:29:59.152Z,28.96
2022-07-31T11:32:06.299Z,29.52
2022-07-31T11:34:50.063Z,30.08
2022-07-31T11:37:18.969Z,29.79
2022-07-31T11:39:51.636Z,29.89
2022-07-31T11:42:27.254Z,29.90
2022-07-31T11:45:11.155Z,29.76
2022-07-31T11:48:12.643Z,29.58
2022-07-31T11:50:28.979Z,29.70
2022-07-31T11:53:02.848Z,28.56
2022-07-31T11:55:29.825Z,29.22
2022-07-31T11:57:57.141Z,29.44
2022-07-31T12:00:29.677Z,29.12
2022-07-31T12:02:57.400Z,29.21
2022-07-31T12:05:37.599Z,28.83
2022-07-31T12:08:07.304Z,28.65
2022-07-31T12:10:34.482Z,28.94
2022-07-31T12:13:02.339Z,29.00
2022-07-31T12:15:28.824Z,28.83
2022-07-31T12:18:03.858Z,28.03
2022-07-31T12:20:36.211Z,27.79
2022-07-31T12:23:05.688Z,28.41
2022-07-31T12:25:43.423Z,27.87
2022-07-31T12:28:12.998Z,27.79
2022-07-31T12:30:39.702Z,26.64
2022-07-31T12:33:07.903Z,27.41
2022-07-31T12:35:56.378Z,28.00
2022-07-31T12:38:45.575Z,27.49
2022-07-31T12:41:14.472Z,27.39
2022-07-31T12:43:51.465Z,27.08
2022-07-31T12:46:34.041Z,27.44
2022-07-31T12:49:00.665Z,27.46
2022-07-31T12:51:46.128Z,27.58
2022-07-31T12:54:17.577Z,26.94
2022-07-31T12:56:45.143Z,27.46
2022-07-31T12:59:11.874Z,27.62
2022-07-31T13:01:38.784Z,27.72
2022-07-31T13:04:08.102Z,27.85
2022-07-31T13:06:46.439Z,27.85
2022-07-31T13:09:13.009Z,27.90
2022-07-31T13:11:46.314Z,27.84
2022-07-31T13:14:19.381Z,27.98
2022-07-31T13:16:46.471Z,28.21
2022-07-31T13:19:13.644Z,27.89
2022-07-31T13:21:49.065Z,27.36
2022-07-31T13:24:20.896Z,27.68
2022-07-31T13:26:49.224Z,27.75
2022-07-31T13:29:16.476Z,27.91
2022-07-31T13:31:43.599Z,28.15
2022-07-31T13:34:10.428Z,27.93
2022-07-31T13:36:39.412Z,28.30
2022-07-31T13:39:09.615Z,27.46
2022-07-31T13:41:38.963Z,27.55
2022-07-31T13:44:06.602Z,27.33
2022-07-31T13:46:33.220Z,27.37
2022-07-31T13:49:02.213Z,26.89
2022-07-31T13:51:29.878Z,26.66
2022-07-31T13:53:56.773Z,26.87
2022-07-31T13:56:42.480Z,26.72
2022-07-31T13:59:14.016Z,26.50
2022-07-31T14:02:13.232Z,26.98
2022-07-31T14:04:32.171Z,26.42
2022-07-31T14:07:04.409Z,26.08
2022-07-31T14:09:31.880Z,25.82
2022-07-31T14:11:58.443Z,25.83
2022-07-31T14:14:25.096Z,25.96
2022-07-31T14:16:51.612Z,25.67
2022-07-31T14:19:18.159Z,24.46
2022-07-31T14:21:55.916Z,25.08
2022-07-31T14:24:31.276Z,25.28
2022-07-31T14:26:57.842Z,25.03
2022-07-31T14:29:24.477Z,25.39
2022-07-31T14:31:51.031Z,25.39
2022-07-31T14:34:17.645Z,25.29
2022-07-31T14:36:44.188Z,24.94
2022-07-31T14:39:10.710Z,25.35
2022-07-31T14:41:37.352Z,25.43
2022-07-31T14:44:04.243Z,25.15
2022-07-31T14:46:30.790Z,24.98
2022-07-31T14:48:57.461Z,24.59
2022-07-31T14:51:23.997Z,24.24
2022-07-31T14:53:50.724Z,24.08
2022-07-31T14:56:30.685Z,24.70
2022-07-31T14:59:03.884Z,24.33
2022-07-31T15:01:31.147Z,24.52
2022-07-31T15:03:58.127Z,24.65
2022-07-31T15:06:55.464Z,24.97
2022-07-31T15:09:11.895Z,25.29
2022-07-31T15:12:00.316Z,26.11
2022-07-31T15:14:29.373Z,26.12
2022-07-31T15:16:55.980Z,25.95
2022-07-31T15:19:22.588Z,25.79
2022-07-31T15:22:10.133Z,26.38
2022-07-31T15:24:42.369Z,26.25
2022-07-31T15:27:13.338Z,26.45
2022-07-31T15:30:05.424Z,26.49
2022-07-31T15:32:27.068Z,26.28
2022-07-31T15:34:54.002Z,26.75
2022-07-31T15:37:20.749Z,26.29
2022-07-31T15:40:01.518Z,26.65
2022-07-31T15:42:34.663Z,26.73
2022-07-31T15:45:01.322Z,26.74
2022-07-31T15:47:27.970Z,26.55
2022-07-31T15:49:54.648Z,26.68
2022-07-31T15:52:21.268Z,26.60
2022-07-31T15:54:51.894Z,26.84
2022-07-31T15:57:20.625Z,27.11
2022-07-31T15:59:47.199Z,26.69
2022-07-31T16:02:13.763Z,26.49
2022-07-31T16:04:51.629Z,26.16
2022-07-31T16:08:29.638Z,25.66
2022-07-31T16:10:15.664Z,25.01
2022-07-31T16:12:47.228Z,25.11
2022-07-31T16:15:16.122Z,24.75
2022-07-31T16:17:43.460Z,24.10
2022-07-31T16:20:12.550Z,24.04
2022-07-31T16:22:41.058Z,23.79
2022-07-31T16:25:10.051Z,23.78
2022-07-31T16:27:38.090Z,23.64
2022-07-31T16:30:06.661Z,23.71
2022-07-31T16:32:33.828Z,23.84
2022-07-31T16:35:01.473Z,24.11
2022-07-31T16:37:52.459Z,24.54
2022-07-31T16:40:28.274Z,24.70
2022-07-31T16:43:47.992Z,25.06
2022-07-31T16:45:52.775Z,25.59
2022-07-31T16:48:19.475Z,25.79
2022-07-31T16:50:48.393Z,25.67
2022-07-31T16:54:10.691Z,26.27
2022-07-31T16:56:13.456Z,26.38
2022-07-31T16:58:40.514Z,26.02
2022-07-31T17:01:53.881Z,25.75
2022-07-31T17:04:01.525Z,25.70
2022-07-31T17:06:37.987Z,25.10
2022-07-31T17:09:17.172Z,24.76
2022-07-31T17:11:47.231Z,25.21
2022-07-31T17:14:14.017Z,24.99
2022-07-31T17:16:46.343Z,25.11
2022-07-31T17:19:13.641Z,25.40
2022-07-31T17:21:44.320Z,25.22
2022-07-31T17:24:15.812Z,25.68
2022-07-31T17:26:43.832Z,25.50
2022-07-31T17:29:10.468Z,26.25
2022-07-31T17:31:37.119Z,25.32
2022-07-31T17:34:08.738Z,25.02
2022-07-31T17:36:36.164Z,25.12
2022-07-31T17:39:02.942Z,24.80
2022-07-31T17:41:29.493Z,25.16
2022-07-31T17:43:56.205Z,25.45
2022-07-31T17:46:29.948Z,25.23
2022-07-31T17:49:01.776Z,25.59
2022-07-31T17:51:28.493Z,25.91
2022-07-31T17:53:59.138Z,26.31
2022-07-31T17:56:27.095Z,26.49
2022-07-31T17:58:54.432Z,26.66
2022-07-31T18:01:23.408Z,27.04
2022-07-31T18:03:52.230Z,27.31
2022-07-31T18:06:18.816Z,27.36
2022-07-31T18:08:45.547Z,27.83
2022-07-31T18:11:12.092Z,27.90
2022-07-31T18:13:47.781Z,28.32
2022-07-31T18:16:15.955Z,28.22
2022-07-31T18:18:42.589Z,28.55
2022-07-31T18:21:09.331Z,28.73
2022-07-31T18:23:36.031Z,28.84
2022-07-31T18:26:02.761Z,28.99
2022-07-31T18:28:29.604Z,29.19
2022-07-31T18:30:56.244Z,29.00
2022-07-31T18:33:22.788Z,29.41
2022-07-31T18:35:49.900Z,29.64
2022-07-31T18:38:16.442Z,29.64
2022-07-31T18:40:43.023Z,29.67
2022-07-31T18:43:09.833Z,30.11
2022-07-31T18:45:36.573Z,29.99
2022-07-31T18:48:08.176Z,30.42
2022-07-31T18:50:58.984Z,30.51
2022-07-31T18:53:21.454Z,30.58
2022-07-31T18:55:48.189Z,30.93
2022-07-31T18:58:14.783Z,31.11
2022-07-31T19:00:41.386Z,31.09
2022-07-31T19:03:08.004Z,31.46
2022-07-31T19:05:34.571Z,31.43
2022-07-31T19:08:01.235Z,31.56
2022-07-31T19:10:29.646Z,31.60
2022-07-31T19:12:57.612Z,31.90
2022-07-31T19:15:24.174Z,32.03
2022-07-31T19:17:50.715Z,32.35
2022-07-31T19:20:44.548Z,32.25
2022-07-31T19:23:04.355Z,32.13
2022-07-31T19:25:30.969Z,32.35
2022-07-31T19:28:17.707Z,32.86
2022-07-31T19:30:45.940Z,33.05
2022-07-31T19:33:12.706Z,33.22
2022-07-31T19:35:55.333Z,33.40
2022-07-31T19:38:22.263Z,33.72
2022-07-31T19:40:48.793Z,33.87
2022-07-31T19:43:15.629Z,33.76
2022-07-31T19:46:10.658Z,33.95
2022-07-31T19:48:35.237Z,33.78
2022-07-31T19:51:02.420Z,34.31
2022-07-31T19:53:29.058Z,34.23
2022-07-31T19:55:55.705Z,34.76
2022-07-31T19:58:22.451Z,34.97
2022-07-31T20:00:49.054Z,34.62
2022-07-31T20:03:15.683Z,34.96
2022-07-31T20:05:42.288Z,34.99
2022-07-31T20:08:08.947Z,35.40
2022-07-31T20:10:35.460Z,35.48
2022-07-31T20:13:02.089Z,35.75
2022-07-31T20:15:50.969Z,35.69
2022-07-31T20:18:26.650Z,35.70
2022-07-31T20:20:59.209Z,36.12
2022-07-31T20:23:26.393Z,35.99
2022-07-31T20:25:53.190Z,36.15
2022-07-31T20:28:19.732Z,36.23
2022-07-31T20:30:46.625Z,36.39
2022-07-31T20:33:13.520Z,36.35
2022-07-31T20:35:47.657Z,36.37
2022-07-31T20:38:17.697Z,36.41
2022-07-31T20:40:49.926Z,36.65
2022-07-31T20:43:21.347Z,36.96
2022-07-31T20:45:48.093Z,36.96
2022-07-31T20:48:15.157Z,37.08
2022-07-31T20:50:41.780Z,36.92
2022-07-31T20:53:09.585Z,37.25
2022-07-31T20:55:36.260Z,37.36
2022-07-31T20:58:02.844Z,37.49
2022-07-31T21:00:29.618Z,37.48
2022-07-31T21:02:56.221Z,37.45
2022-07-31T21:05:27.057Z,37.88
2022-07-31T21:07:53.935Z,37.72
2022-07-31T21:10:20.698Z,37.57
2022-07-31T21:12:47.444Z,37.93
2022-07-31T21:15:40.671Z,38.08
2022-07-31T21:18:00.798Z,38.09
2022-07-31T21:20:50.122Z,37.93
2022-07-31T21:23:17.405Z,38.04
2022-07-31T21:25:44.286Z,37.75
2022-07-31T21:28:11.896Z,37.64
2022-07-31T21:30:40.073Z,38.09
2022-07-31T21:33:08.629Z,38.05
2022-07-31T21:35:36.212Z,37.81
2022-07-31T21:38:04.148Z,38.06
2022-07-31T21:40:31.980Z,37.98
2022-07-31T21:42:58.887Z,38.21
2022-07-31T21:45:33.104Z,38.03
2022-07-31T21:48:14.659Z,38.06
2022-07-31T21:50:42.702Z,38.24
2022-07-31T21:53:09.534Z,38.33
2022-07-31T21:55:38.026Z,38.41
2022-07-31T21:58:05.567Z,38.50
2022-07-31T22:00:33.071Z,38.32
2022-07-31T22:03:00.590Z,38.85
2022-07-31T22:05:27.249Z,38.65
2022-07-31T22:07:53.930Z,38.74
2022-07-31T22:10:20.633Z,38.99
2022-07-31T22:12:48.852Z,39.31
2022-07-31T22:15:16.052Z,39.14
2022-07-31T22:17:43.294Z,39.52
2022-07-31T22:20:10.626Z,39.33
2022-07-31T22:22:37.413Z,39.62
2022-07-31T22:25:05.210Z,39.32
2022-07-31T22:27:32.932Z,39.46
2022-07-31T22:30:00.522Z,39.80
2022-07-31T22:32:27.398Z,39.51
2022-07-31T22:34:53.999Z,39.99
2022-07-31T22:37:20.864Z,39.87
2022-07-31T22:39:48.651Z,39.83
2022-07-31T22:42:15.635Z,39.38
2022-07-31T22:44:43.535Z,39.96
2022-07-31T22:47:10.971Z,40.33
2022-07-31T22:49:38.238Z,40.23
2022-07-31T22:52:06.238Z,40.61
2022-07-31T22:54:33.655Z,40.51
2022-07-31T22:57:00.280Z,40.40
2022-07-31T22:59:26.829Z,40.46
2022-07-31T23:01:53.457Z,40.91
2022-07-31T23:04:20.019Z,40.85
2022-07-31T23:06:46.520Z,40.90
2022-07-31T23:09:13.061Z,40.90
2022-07-31T23:11:39.829Z,41.14
2022-07-31T23:14:06.416Z,40.75
2022-07-31T23:16:33.104Z,41.17
2022-07-31T23:18:59.897Z,41.10
2022-07-31T23:21:26.511Z,41.39
2022-07-31T23:23:53.424Z,41.37
2022-07-31T23:26:22.898Z,41.59
2022-07-31T23:28:49.843Z,41.34
2022-07-31T23:31:17.849Z,41.14
2022-07-31T23:33:44.878Z,41.32
2022-07-31T23:36:12.110Z,41.35
2022-07-31T23:38:39.089Z,41.46
2022-07-31T23:41:05.716Z,41.44
2022-07-31T23:43:32.487Z,41.17
2022-07-31T23:45:59.143Z,41.48
2022-07-31T23:48:29.292Z,41.36
2022-07-31T23:50:57.565Z,41.74
2022-07-31T23:53:24.262Z,41.52
2022-07-31T23:55:51.084Z,41.63
2022-07-31T23:58:17.707Z,41.82
